sensor_id;sensor_type;location;lat;lon;timestamp;pressure;altitude;pressure_sealevel;temperature
71163;BMP280;58858;50.948;6.566;2022-07-23T00:00:24;100849.75;;;15.49
71163;BMP280;58858;50.948;6.566;2022-07-23T00:10:26;100861.34;;;15.38
71163;BMP280;58858;50.948;6.566;2022-07-23T00:20:27;100850.97;;;15.65
71163;BMP280;58858;50.948;6.566;2022-07-23T00:30:29;100837.97;;;15.39
71163;BMP280;58858;50.948;6.566;2022-07-23T00:40:31;100849.63;;;15.56
71163;BMP280;58858;50.948;6.566;2022-07-23T00:50:32;100848.00;;;15.44
71163;BMP280;58858;50.948;6.566;2022-07-23T01:00:33;100853.13;;;15.57
71163;BMP280;58858;50.948;6.566;2022-07-23T01:10:34;100850.22;;;15.55
71163;BMP280;58858;50.948;6.566;2022-07-23T01:20:35;100859.19;;;15.46
71163;BMP280;58858;50.948;6.566;2022-07-23T01:30:37;100853.88;;;15.22
71163;BMP280;58858;50.948;6.566;2022-07-23T01:40:41;100830.72;;;15.09
71163;BMP280;58858;50.948;6.566;2022-07-23T01:50:42;100820.53;;;14.93
71163;BMP280;58858;50.948;6.566;2022-07-23T02:00:55;100841.34;;;14.77
71163;BMP280;58858;50.948;6.566;2022-07-23T02:10:57;100821.31;;;14.51
71163;BMP280;58858;50.948;6.566;2022-07-23T02:20:58;100806.09;;;14.59
71163;BMP280;58858;50.948;6.566;2022-07-23T02:30:59;100805.94;;;14.31
71163;BMP280;58858;50.948;6.566;2022-07-23T02:41:00;100822.69;;;14.17
71163;BMP280;58858;50.948;6.566;2022-07-23T02:51:01;100824.22;;;14.10
71163;BMP280;58858;50.948;6.566;2022-07-23T03:01:11;100828.06;;;13.98
71163;BMP280;58858;50.948;6.566;2022-07-23T03:11:12;100822.63;;;13.91
71163;BMP280;58858;50.948;6.566;2022-07-23T03:21:15;100849.91;;;13.80
71163;BMP280;58858;50.948;6.566;2022-07-23T03:31:16;100828.66;;;13.56
71163;BMP280;58858;50.948;6.566;2022-07-23T03:41:18;100843.56;;;13.70
71163;BMP280;58858;50.948;6.566;2022-07-23T03:51:19;100850.47;;;13.62
71163;BMP280;58858;50.948;6.566;2022-07-23T04:01:20;100842.13;;;13.52
71163;BMP280;58858;50.948;6.566;2022-07-23T04:11:22;100849.16;;;13.63
71163;BMP280;58858;50.948;6.566;2022-07-23T04:21:43;100859.78;;;13.66
71163;BMP280;58858;50.948;6.566;2022-07-23T04:31:44;100863.50;;;13.61
71163;BMP280;58858;50.948;6.566;2022-07-23T04:41:45;100892.41;;;13.69
71163;BMP280;58858;50.948;6.566;2022-07-23T04:51:47;100893.88;;;13.94
71163;BMP280;58858;50.948;6.566;2022-07-23T05:01:48;100901.88;;;14.00
71163;BMP280;58858;50.948;6.566;2022-07-23T05:11:52;100920.00;;;14.52
71163;BMP280;58858;50.948;6.566;2022-07-23T05:21:55;100917.47;;;14.80
71163;BMP280;58858;50.948;6.566;2022-07-23T05:31:56;100890.06;;;15.61
71163;BMP280;58858;50.948;6.566;2022-07-23T05:41:58;100919.91;;;15.72
71163;BMP280;58858;50.948;6.566;2022-07-23T05:52:06;100940.03;;;15.47
71163;BMP280;58858;50.948;6.566;2022-07-23T06:02:33;100954.41;;;15.45
71163;BMP280;58858;50.948;6.566;2022-07-23T06:12:34;100944.88;;;16.46
71163;BMP280;58858;50.948;6.566;2022-07-23T06:22:36;100959.06;;;15.52
71163;BMP280;58858;50.948;6.566;2022-07-23T06:32:37;100960.53;;;15.18
71163;BMP280;58858;50.948;6.566;2022-07-23T06:42:38;100967.78;;;15.49
71163;BMP280;58858;50.948;6.566;2022-07-23T06:52:49;100957.91;;;15.81
71163;BMP280;58858;50.948;6.566;2022-07-23T07:02:53;100956.09;;;17.63
71163;BMP280;58858;50.948;6.566;2022-07-23T07:12:54;100908.00;;;19.60
71163;BMP280;58858;50.948;6.566;2022-07-23T07:22:55;100879.50;;;20.06
71163;BMP280;58858;50.948;6.566;2022-07-23T07:32:57;100904.53;;;20.06
71163;BMP280;58858;50.948;6.566;2022-07-23T07:43:01;100927.91;;;19.79
71163;BMP280;58858;50.948;6.566;2022-07-23T07:53:05;100845.16;;;20.75
71163;BMP280;58858;50.948;6.566;2022-07-23T08:03:06;100906.38;;;20.61
71163;BMP280;58858;50.948;6.566;2022-07-23T08:13:07;100877.16;;;21.51
71163;BMP280;58858;50.948;6.566;2022-07-23T08:23:09;100942.94;;;20.56
71163;BMP280;58858;50.948;6.566;2022-07-23T08:33:12;100903.91;;;21.29
71163;BMP280;58858;50.948;6.566;2022-07-23T08:43:17;100995.75;;;21.65
71163;BMP280;58858;50.948;6.566;2022-07-23T08:53:19;101019.56;;;20.68
71163;BMP280;58858;50.948;6.566;2022-07-23T09:03:27;100908.16;;;20.93
71163;BMP280;58858;50.948;6.566;2022-07-23T09:13:49;100901.97;;;22.82
71163;BMP280;58858;50.948;6.566;2022-07-23T09:23:59;100899.97;;;21.73
71163;BMP280;58858;50.948;6.566;2022-07-23T09:34:15;100952.25;;;21.60
71163;BMP280;58858;50.948;6.566;2022-07-23T09:44:18;100998.66;;;22.74
71163;BMP280;58858;50.948;6.566;2022-07-23T10:04:33;100973.75;;;23.51
71163;BMP280;58858;50.948;6.566;2022-07-23T10:14:50;100779.75;;;24.45
71163;BMP280;58858;50.948;6.566;2022-07-23T10:35:37;100974.31;;;24.10
71163;BMP280;58858;50.948;6.566;2022-07-23T10:45:40;100823.81;;;24.98
71163;BMP280;58858;50.948;6.566;2022-07-23T10:55:47;100861.69;;;24.99
71163;BMP280;58858;50.948;6.566;2022-07-23T11:05:48;100771.25;;;25.97
71163;BMP280;58858;50.948;6.566;2022-07-23T11:26:05;100937.16;;;24.42
71163;BMP280;58858;50.948;6.566;2022-07-23T11:36:06;100843.75;;;25.44
71163;BMP280;58858;50.948;6.566;2022-07-23T11:46:09;100699.66;;;25.98
71163;BMP280;58858;50.948;6.566;2022-07-23T11:56:11;100775.22;;;26.34
71163;BMP280;58858;50.948;6.566;2022-07-23T12:06:12;100870.56;;;26.07
71163;BMP280;58858;50.948;6.566;2022-07-23T12:16:13;100917.06;;;25.53
71163;BMP280;58858;50.948;6.566;2022-07-23T12:26:14;100904.69;;;24.03
71163;BMP280;58858;50.948;6.566;2022-07-23T12:36:15;100716.81;;;24.67
71163;BMP280;58858;50.948;6.566;2022-07-23T12:46:21;100822.50;;;26.62
71163;BMP280;58858;50.948;6.566;2022-07-23T12:56:33;100737.31;;;26.35
71163;BMP280;58858;50.948;6.566;2022-07-23T13:06:37;100676.19;;;25.46
71163;BMP280;58858;50.948;6.566;2022-07-23T13:16:39;100853.56;;;25.82
71163;BMP280;58858;50.948;6.566;2022-07-23T13:26:41;100592.72;;;26.90
71163;BMP280;58858;50.948;6.566;2022-07-23T13:36:43;100810.19;;;26.50
71163;BMP280;58858;50.948;6.566;2022-07-23T13:46:44;100725.69;;;27.17
71163;BMP280;58858;50.948;6.566;2022-07-23T13:56:45;100784.59;;;26.19
71163;BMP280;58858;50.948;6.566;2022-07-23T14:06:46;100723.56;;;25.17
71163;BMP280;58858;50.948;6.566;2022-07-23T14:16:47;100691.28;;;24.40
71163;BMP280;58858;50.948;6.566;2022-07-23T14:26:48;100702.97;;;24.71
71163;BMP280;58858;50.948;6.566;2022-07-23T14:36:50;100706.91;;;24.64
71163;BMP280;58858;50.948;6.566;2022-07-23T14:46:52;100687.00;;;25.34
71163;BMP280;58858;50.948;6.566;2022-07-23T14:56:55;100626.41;;;24.67
71163;BMP280;58858;50.948;6.566;2022-07-23T15:06:56;100789.84;;;24.71
71163;BMP280;58858;50.948;6.566;2022-07-23T15:17:17;100665.34;;;24.40
71163;BMP280;58858;50.948;6.566;2022-07-23T15:27:18;100690.19;;;25.25
71163;BMP280;58858;50.948;6.566;2022-07-23T15:37:19;100744.84;;;25.43
71163;BMP280;58858;50.948;6.566;2022-07-23T15:47:20;100708.63;;;24.01
71163;BMP280;58858;50.948;6.566;2022-07-23T15:57:22;100717.75;;;24.18
71163;BMP280;58858;50.948;6.566;2022-07-23T16:07:23;100738.53;;;24.13
71163;BMP280;58858;50.948;6.566;2022-07-23T16:17:24;100864.09;;;23.87
71163;BMP280;58858;50.948;6.566;2022-07-23T16:27:27;100662.78;;;24.10
71163;BMP280;58858;50.948;6.566;2022-07-23T16:37:28;100744.31;;;23.66
71163;BMP280;58858;50.948;6.566;2022-07-23T16:47:29;100638.16;;;24.23
71163;BMP280;58858;50.948;6.566;2022-07-23T16:57:30;100717.31;;;23.23
71163;BMP280;58858;50.948;6.566;2022-07-23T17:07:31;100723.63;;;23.41
71163;BMP280;58858;50.948;6.566;2022-07-23T17:17:33;100765.84;;;23.47
71163;BMP280;58858;50.948;6.566;2022-07-23T17:27:35;100777.28;;;23.53
71163;BMP280;58858;50.948;6.566;2022-07-23T17:37:36;100761.72;;;22.85
71163;BMP280;58858;50.948;6.566;2022-07-23T17:47:37;100775.75;;;23.02
71163;BMP280;58858;50.948;6.566;2022-07-23T17:57:58;100790.81;;;22.22
71163;BMP280;58858;50.948;6.566;2022-07-23T18:08:22;100812.78;;;22.14
71163;BMP280;58858;50.948;6.566;2022-07-23T18:18:43;100924.53;;;22.16
71163;BMP280;58858;50.948;6.566;2022-07-23T18:29:04;100929.72;;;21.69
71163;BMP280;58858;50.948;6.566;2022-07-23T18:39:05;100929.13;;;21.57
71163;BMP280;58858;50.948;6.566;2022-07-23T18:49:07;100981.59;;;21.74
71163;BMP280;58858;50.948;6.566;2022-07-23T18:59:11;100934.28;;;21.76
71163;BMP280;58858;50.948;6.566;2022-07-23T19:09:12;100864.16;;;21.29
71163;BMP280;58858;50.948;6.566;2022-07-23T19:19:13;100887.22;;;21.05
71163;BMP280;58858;50.948;6.566;2022-07-23T19:29:14;100979.38;;;20.60
71163;BMP280;58858;50.948;6.566;2022-07-23T19:39:15;100965.16;;;20.43
71163;BMP280;58858;50.948;6.566;2022-07-23T19:49:16;100983.22;;;20.31
71163;BMP280;58858;50.948;6.566;2022-07-23T19:59:18;101071.31;;;20.15
71163;BMP280;58858;50.948;6.566;2022-07-23T20:09:20;101066.22;;;19.78
71163;BMP280;58858;50.948;6.566;2022-07-23T20:19:22;101092.41;;;19.21
71163;BMP280;58858;50.948;6.566;2022-07-23T20:29:24;101072.78;;;18.76
71163;BMP280;58858;50.948;6.566;2022-07-23T20:39:25;101048.06;;;18.39
71163;BMP280;58858;50.948;6.566;2022-07-23T20:49:27;101045.94;;;18.29
71163;BMP280;58858;50.948;6.566;2022-07-23T20:59:28;101076.53;;;17.80
71163;BMP280;58858;50.948;6.566;2022-07-23T21:09:29;101046.41;;;17.57
71163;BMP280;58858;50.948;6.566;2022-07-23T21:19:30;101039.53;;;17.67
71163;BMP280;58858;50.948;6.566;2022-07-23T21:29:31;101029.47;;;17.62
71163;BMP280;58858;50.948;6.566;2022-07-23T21:39:32;101058.28;;;17.29
71163;BMP280;58858;50.948;6.566;2022-07-23T21:49:33;101049.00;;;17.06
71163;BMP280;58858;50.948;6.566;2022-07-23T21:59:34;101049.13;;;16.90
71163;BMP280;58858;50.948;6.566;2022-07-23T22:09:38;101051.03;;;16.87
71163;BMP280;58858;50.948;6.566;2022-07-23T22:19:39;101067.03;;;16.52
71163;BMP280;58858;50.948;6.566;2022-07-23T22:29:40;101067.91;;;16.45
71163;BMP280;58858;50.948;6.566;2022-07-23T22:39:41;101032.38;;;16.42
71163;BMP280;58858;50.948;6.566;2022-07-23T22:49:42;101055.94;;;16.33
71163;BMP280;58858;50.948;6.566;2022-07-23T22:59:44;101025.59;;;16.08
71163;BMP280;58858;50.948;6.566;2022-07-23T23:09:45;101042.44;;;16.02
71163;BMP280;58858;50.948;6.566;2022-07-23T23:19:46;101006.41;;;16.28
71163;BMP280;58858;50.948;6.566;2022-07-23T23:29:47;101006.41;;;16.28
71163;BMP280;58858;50.948;6.566;2022-07-23T23:39:48;100980.53;;;16.33
71163;BMP280;58858;50.948;6.566;2022-07-23T23:49:49;100975.41;;;16.29
71163;BMP280;58858;50.948;6.566;2022-07-23T23:59:50;101017.88;;;16.06
